• Join FlightAware (Why Join?)
  • Login
  • US Flag 
10:41AM EST


 

Airport Tracker/Info


-or-


 

Live Flight TrackerFlight Track Log ✈ JBU185 ✈ 01-Jul-2013 ✈ KROC - KJFK

Flight Track Log - Related Links

Times and Time Zones

All times are in EDT time to prevent confusion due to time zone crossing. See the JBU185 flight status page for this flight to view local times or setup timezone preferences in your user account.

Time Position Orientation Groundspeed Altitude Reporting Facility
EDT Latitude Longitude Course Direction KTS MPH feet Rate Location/Type
06:03AM 43.1281 -77.6703 121° Southeast 150 173 1,300  Level Cleveland Center
06:04AM 43.1797 -77.6564 11° North 206 237 2,800 1,740 Climbing Cleveland Center
06:05AM 43.1544 -77.5664 111° Southeast 246 283 5,400 2,640 Climbing Cleveland Center
06:06AM 43.1064 -77.4836 128° Southeast 252 290 8,600 2,880 Climbing Cleveland Center
06:07AM 42.8887 -77.1662 114° Southeast  Level FlightAware Approximate
06:07AM 43.0542 -77.3953 129° Southeast 277 319 11,200  Level Cleveland Center
06:08AM 42.8449 -77.0633 121° Southeast  Level FlightAware Approximate
06:08AM 42.9969 -77.2931 127° Southeast 312 359 13,300  Level Cleveland Center
06:11AM 42.8319 -77.0078 128° Southeast 378 435 19,400 2,220 Climbing Boston Center
06:12AM 42.7742 -76.8817 122° Southeast 384 442 21,000 780 Climbing Boston Center
06:13AM 42.7167 -76.7531 121° Southeast 389 448 21,000  Level Boston Center
06:14AM 42.6667 -76.6394 121° Southeast 379 436 21,000  Level Boston Center
06:15AM 42.6203 -76.5375 122° Southeast 368 423 21,000  Level Boston Center
06:16AM 42.5681 -76.4242 122° Southeast 362 417 21,000  Level Boston Center
06:17AM 42.5181 -76.3081 120° Southeast 357 411 21,000  Level Boston Center
06:18AM 42.4703 -76.1728 116° Southeast 357 411 21,000  Level Boston Center
06:19AM 42.4306 -76.0522 114° Southeast 367 422 21,000  Level Boston Center
06:20AM 42.3906 -75.9289 114° Southeast 373 429 21,000  Level Boston Center
06:21AM 42.3486 -75.8003 114° Southeast 368 423 21,000  Level Boston Center
06:22AM 42.3064 -75.6772 115° Southeast 368 423 21,000  Level Boston Center
06:23AM 42.2603 -75.5344 114° Southeast 373 429 21,000  Level Boston Center
06:24AM 42.2158 -75.4033 115° Southeast 373 429 21,000  Level Boston Center
06:25AM 42.1714 -75.2667 114° Southeast 380 437 21,000  Level Boston Center
06:26AM 42.1325 -75.1558 115° Southeast 391 450 21,000  Level Boston Center
06:27AM 42.0794 -75.0136 117° Southeast 391 450 21,000  Level Boston Center
06:28AM 42.0308 -74.8550 112° Southeast 393 452 21,000  Level Boston Center
06:29AM 41.9836 -74.7219 115° Southeast 398 458 21,000  Level Boston Center
06:30AM 41.9303 -74.5722 116° Southeast 382 440 21,000  Level Boston Center
06:31AM 41.8847 -74.4422 115° Southeast 382 440 21,000 -300 Level Boston Center
06:32AM 41.8428 -74.3294 116° Southeast 377 434 20,400 -540 Descending Boston Center
06:33AM 41.7989 -74.2028 115° Southeast 377 434 20,000 -240 Descending Boston Center
06:34AM 41.7531 -74.0653 114° Southeast 372 428 20,000  Level Boston Center
06:36AM 41.6553 -73.8972 128° Southeast 332 382 20,000  Level New York Center
06:37AM 41.5869 -73.8886 175° South 312 359 20,000  Level New York Center
06:38AM 41.5167 -73.9489 213° Southwest 260 299 20,000  Level New York Center
06:39AM 41.4483 -74.0094 214° Southwest 269 310 20,000  Level New York Center
06:40AM 41.3778 -74.0722 214° Southwest 290 334 20,000  Level New York Center
06:41AM 41.3094 -74.1325 214° Southwest 301 346 20,000  Level New York Center
06:42AM 41.2508 -74.2150 227° Southwest 301 346 20,000  Level New York Center
06:44AM 41.1397 -74.3775 228° Southwest 307 353 20,000  Level New York Center
06:45AM 41.0633 -74.4228 204° Southwest 300 345 20,000 -240 Level New York Center
06:46AM 40.9900 -74.3694 151° Southeast 254 292 19,600 -540 Descending New York Center
06:47AM 40.9503 -74.2356 111° Southeast 260 299 19,000 -300 Descending New York Center
06:48AM 40.9078 -74.1236 117° Southeast 322 371 19,000  Level New York Center
06:49AM 40.8544 -74.0247 125° Southeast 334 384 19,000 -840 Level New York Center
06:50AM 40.7667 -74.0000 168° South 306 352 17,400 -1,560 Descending New York TRACON
06:51AM 40.6833 -73.9833 171° South 317 365 16,000 -1,260 Descending New York TRACON
06:52AM 40.6000 -73.9500 163° South 309 356 14,900 -1,500 Descending New York TRACON
06:53AM 40.5333 -73.9000 150° Southeast 299 344 13,000 -1,080 Descending New York TRACON
06:53AM 40.4667 -73.8500 150° Southeast 295 339 12,900 -1,260 Descending New York TRACON
06:54AM 40.4000 -73.8000 150° Southeast 285 328 10,700 -2,100 Descending New York TRACON
06:55AM 40.3333 -73.7500 150° Southeast 277 319 8,800 -1,740 Descending New York TRACON
06:56AM 40.3333 -73.6667 90° East 312 359 7,400 -960 Descending New York TRACON
06:57AM 40.4000 -73.6333 21° North 305 351 7,000 -240 Descending New York TRACON
06:58AM 40.4667 -73.5833 30° Northeast 305 351 7,000  Level New York TRACON
06:59AM 40.5333 -73.5167 37° Northeast 274 315 7,000 -780 Level New York TRACON
07:00AM 40.5833 -73.4667 37° Northeast 261 300 5,600 -1,500 Descending New York TRACON
07:01AM 40.6500 -73.4333 21° North 246 283 4,000 -840 Descending New York TRACON
07:02AM 40.7167 -73.4333 360° North 245 282 4,000  Level New York TRACON
07:03AM 40.7833 -73.4667 339° North 241 277 4,000 -780 Level New York TRACON
07:04AM 40.8000 -73.5167 294° West 221 254 2,600 -1,080 Descending New York TRACON
07:05AM 40.8167 -73.5833 288° West 188 216 2,000 -300 Descending New York TRACON
07:06AM 40.7833 -73.6500 237° Southwest 177 204 2,000  Level New York TRACON
07:07AM 40.7500 -73.6833 217° Southwest 175 201 2,000 -300 Level New York TRACON
07:08AM 40.7167 -73.7000 201° Southwest 160 184 1,500 -600 Descending New York TRACON